createdAt,value
2018-04-06T00:01:27.438Z,101626.93
2018-04-06T00:03:55.065Z,101633.67
2018-04-06T00:06:22.642Z,101636.96
2018-04-06T00:08:50.323Z,101635.68
2018-04-06T00:11:17.966Z,101637.39
2018-04-06T00:13:45.610Z,101635.36
2018-04-06T00:16:13.206Z,101638.56
2018-04-06T00:18:40.835Z,101647.09
2018-04-06T00:21:08.414Z,101641.45
2018-04-06T00:23:36.042Z,101640.44
2018-04-06T00:26:03.631Z,101628.42
2018-04-06T00:28:31.261Z,101636.81
2018-04-06T00:30:58.917Z,101629.27
2018-04-06T00:33:26.546Z,101630.91
2018-04-06T00:35:54.132Z,101633.77
2018-04-06T00:38:21.754Z,101633.97
2018-04-06T00:40:49.456Z,101623.97
2018-04-06T00:43:17.084Z,101624.00
2018-04-06T00:45:44.755Z,101621.98
2018-04-06T00:48:12.351Z,101619.63
2018-04-06T00:50:39.983Z,101616.48
2018-04-06T00:53:19.191Z,101625.72
2018-04-06T00:55:46.814Z,101627.81
2018-04-06T00:58:14.413Z,101629.28
2018-04-06T01:00:42.062Z,101629.31
2018-04-06T01:03:09.650Z,101632.97
2018-04-06T01:05:37.270Z,101623.10
2018-04-06T01:08:04.834Z,101618.00
2018-04-06T01:10:32.459Z,101615.84
2018-04-06T01:13:00.124Z,101613.72
2018-04-06T01:15:27.757Z,101611.56
2018-04-06T01:17:55.384Z,101613.20
2018-04-06T01:20:23.019Z,101604.22
2018-04-06T01:22:50.602Z,101615.05
2018-04-06T01:25:18.224Z,101609.11
2018-04-06T01:27:45.842Z,101607.88
2018-04-06T01:30:13.482Z,101604.84
2018-04-06T01:32:41.083Z,101604.92
2018-04-06T01:35:08.672Z,101607.07
2018-04-06T01:37:36.291Z,101614.70
2018-04-06T01:40:03.907Z,101615.95
2018-04-06T01:42:31.523Z,101614.42
2018-04-06T01:44:59.121Z,101611.38
2018-04-06T01:47:26.793Z,101612.19
2018-04-06T01:49:54.409Z,101611.16
2018-04-06T01:52:22.018Z,101609.62
2018-04-06T01:54:49.606Z,101606.87
2018-04-06T01:57:17.330Z,101607.91
2018-04-06T01:59:44.919Z,101604.94
2018-04-06T02:02:12.539Z,101606.68
2018-04-06T02:04:40.121Z,101604.73
2018-04-06T02:07:07.726Z,101604.13
2018-04-06T02:09:35.315Z,101604.02
2018-04-06T02:12:02.944Z,101598.70
2018-04-06T02:14:30.537Z,101603.69
2018-04-06T02:16:58.210Z,101598.88
2018-04-06T02:19:25.799Z,101598.64
2018-04-06T02:21:53.391Z,101598.91
2018-04-06T02:24:21.025Z,101591.80
2018-04-06T02:26:48.630Z,101591.43
2018-04-06T02:29:16.324Z,101590.92
2018-04-06T02:31:43.930Z,101599.02
2018-04-06T02:34:11.562Z,101600.39
2018-04-06T02:36:39.144Z,101596.77
2018-04-06T02:39:06.760Z,101602.44
2018-04-06T02:41:34.355Z,101603.67
2018-04-06T02:44:02.137Z,101598.29
2018-04-06T02:46:29.757Z,101595.80
2018-04-06T02:48:57.390Z,101600.88
2018-04-06T02:51:24.996Z,101603.03
2018-04-06T02:53:52.615Z,101601.16
2018-04-06T02:56:20.447Z,101599.64
2018-04-06T02:58:48.094Z,101597.17
2018-04-06T03:01:15.673Z,101588.70
2018-04-06T03:03:43.292Z,101594.22
2018-04-06T03:06:10.886Z,101593.72
2018-04-06T03:08:38.538Z,101583.49
2018-04-06T03:11:06.131Z,101586.45
2018-04-06T03:13:33.779Z,101582.91
2018-04-06T03:16:01.402Z,101587.81
2018-04-06T03:18:28.992Z,101591.86
2018-04-06T03:20:56.610Z,101585.44
2018-04-06T03:23:24.265Z,101579.14
2018-04-06T03:25:51.982Z,101578.95
2018-04-06T03:28:19.601Z,101580.59
2018-04-06T03:30:47.221Z,101576.45
2018-04-06T03:33:14.811Z,101578.72
2018-04-06T03:35:42.470Z,101582.31
2018-04-06T03:38:10.071Z,101578.23
2018-04-06T03:40:37.733Z,101584.14
2018-04-06T03:43:05.325Z,101576.94
2018-04-06T03:45:32.955Z,101576.92
2018-04-06T03:48:00.592Z,101581.66
2018-04-06T03:50:28.208Z,101584.80
2018-04-06T03:52:55.796Z,101582.73
2018-04-06T03:55:23.411Z,101580.23
2018-04-06T03:57:51.137Z,101582.66
2018-04-06T04:00:18.768Z,101585.51
2018-04-06T04:02:46.347Z,101589.09
2018-04-06T04:05:13.978Z,101590.63
2018-04-06T04:07:41.555Z,101586.17
2018-04-06T04:10:09.196Z,101590.28
2018-04-06T04:12:36.783Z,101595.20
2018-04-06T04:15:04.516Z,101596.44
2018-04-06T04:17:32.100Z,101593.63
2018-04-06T04:19:59.677Z,101599.75
2018-04-06T04:22:27.301Z,101593.27
2018-04-06T04:24:54.899Z,101599.48
2018-04-06T04:27:22.517Z,101591.44
2018-04-06T04:29:50.123Z,101578.22
2018-04-06T04:32:17.764Z,101577.96
2018-04-06T04:34:45.397Z,101574.80
2018-04-06T04:37:13.031Z,101569.82
2018-04-06T04:39:40.618Z,101566.52
2018-04-06T04:42:08.255Z,101565.86
2018-04-06T04:44:35.933Z,101573.20
2018-04-06T04:47:03.565Z,101577.39
2018-04-06T04:49:31.182Z,101574.13
2018-04-06T04:51:58.801Z,101584.94
2018-04-06T04:54:26.392Z,101582.15
2018-04-06T04:56:54.020Z,101583.47
2018-04-06T04:59:21.654Z,101582.27
2018-04-06T05:01:49.287Z,101583.22
2018-04-06T05:04:16.936Z,101584.38
2018-04-06T05:06:44.519Z,101583.48
2018-04-06T05:09:12.143Z,101586.86
2018-04-06T05:11:39.737Z,101587.95
2018-04-06T05:14:07.438Z,101580.11
2018-04-06T05:16:35.080Z,101588.93
2018-04-06T05:19:02.707Z,101585.39
2018-04-06T05:21:30.371Z,101588.34
2018-04-06T05:23:58.052Z,101585.77
2018-04-06T05:26:25.706Z,101590.00
2018-04-06T05:28:53.326Z,101584.42
2018-04-06T05:31:20.917Z,101587.22
2018-04-06T05:33:48.540Z,101586.06
2018-04-06T05:36:16.145Z,101585.23
2018-04-06T05:38:43.824Z,101590.86
2018-04-06T05:41:11.432Z,101578.53
2018-04-06T05:43:39.130Z,101591.92
2018-04-06T05:46:06.719Z,101581.52
2018-04-06T05:48:34.414Z,101585.23
2018-04-06T05:51:02.037Z,101576.70
2018-04-06T05:53:29.747Z,101576.22
2018-04-06T05:55:57.455Z,101572.86
2018-04-06T05:58:25.053Z,101567.44
2018-04-06T06:00:52.838Z,101556.73
2018-04-06T06:03:20.457Z,101558.89
2018-04-06T06:05:48.078Z,101555.53
2018-04-06T06:08:15.754Z,101561.22
2018-04-06T06:10:43.465Z,101573.59
2018-04-06T06:13:11.166Z,101575.25
2018-04-06T06:15:38.870Z,101570.81
2018-04-06T06:18:06.586Z,101576.76
2018-04-06T06:20:34.302Z,101569.37
2018-04-06T06:23:01.978Z,101568.57
2018-04-06T06:25:29.684Z,101565.03
2018-04-06T06:27:57.283Z,101563.13
2018-04-06T06:30:44.646Z,101561.11
2018-04-06T06:33:12.239Z,101559.73
2018-04-06T06:35:39.878Z,101564.14
2018-04-06T06:38:07.477Z,101571.48
2018-04-06T06:40:35.084Z,101566.21
2018-04-06T06:43:02.885Z,101571.22
2018-04-06T06:45:30.507Z,101573.41
2018-04-06T06:47:58.166Z,101565.07
2018-04-06T06:50:25.783Z,101562.44
2018-04-06T06:52:53.416Z,101559.07
2018-04-06T06:55:21.031Z,101554.20
2018-04-06T06:57:48.654Z,101550.34
2018-04-06T07:00:16.235Z,101537.56
2018-04-06T07:02:43.883Z,101533.37
2018-04-06T07:05:11.520Z,101528.19
2018-04-06T07:07:39.151Z,101513.84
2018-04-06T07:10:06.739Z,101515.03
2018-04-06T07:12:34.414Z,101504.47
2018-04-06T07:15:02.027Z,101499.59
2018-04-06T07:17:29.622Z,101496.89
2018-04-06T07:19:57.259Z,101498.06
2018-04-06T07:22:24.878Z,101482.59
2018-04-06T07:24:52.491Z,101484.88
2018-04-06T07:27:20.094Z,101493.95
2018-04-06T07:29:47.750Z,101491.77
2018-04-06T07:32:15.330Z,101483.59
2018-04-06T07:34:42.963Z,101478.83
2018-04-06T07:37:10.570Z,101486.35
2018-04-06T07:39:38.194Z,101481.71
2018-04-06T07:42:05.794Z,101476.77
2018-04-06T07:44:33.458Z,101487.57
2018-04-06T07:47:01.050Z,101484.64
2018-04-06T07:49:28.778Z,101475.58
2018-04-06T07:51:56.373Z,101479.70
2018-04-06T07:54:24.019Z,101472.05
2018-04-06T07:56:51.605Z,101473.08
2018-04-06T07:59:19.233Z,101471.13
2018-04-06T08:01:46.830Z,101475.25
2018-04-06T08:04:14.521Z,101465.22
2018-04-06T08:06:42.122Z,101471.13
2018-04-06T08:09:09.721Z,101468.92
2018-04-06T08:11:37.352Z,101472.55
2018-04-06T08:14:04.942Z,101465.12
2018-04-06T08:16:32.678Z,101479.44
2018-04-06T08:19:00.280Z,101479.36
2018-04-06T08:21:27.978Z,101472.92
2018-04-06T08:23:55.577Z,101476.31
2018-04-06T08:26:23.210Z,101484.93
2018-04-06T08:28:50.831Z,101483.20
2018-04-06T08:31:18.517Z,101477.37
2018-04-06T08:33:46.116Z,101487.73
2018-04-06T08:36:13.771Z,101478.57
2018-04-06T08:38:41.354Z,101473.95
2018-04-06T08:41:08.986Z,101469.62
2018-04-06T08:43:36.687Z,101467.05
2018-04-06T08:46:04.339Z,101465.74
2018-04-06T08:48:31.987Z,101475.86
2018-04-06T08:50:59.628Z,101470.47
2018-04-06T08:53:27.214Z,101464.93
2018-04-06T08:55:54.855Z,101457.80
2018-04-06T08:58:22.492Z,101459.65
2018-04-06T09:00:50.127Z,101462.09
2018-04-06T09:03:17.725Z,101454.78
2018-04-06T09:05:45.315Z,101454.91
2018-04-06T09:08:12.955Z,101460.70
2018-04-06T09:10:40.600Z,101456.63
2018-04-06T09:13:08.269Z,101465.62
2018-04-06T09:15:35.861Z,101455.66
2018-04-06T09:18:03.482Z,101446.94
2018-04-06T09:20:31.074Z,101444.64
2018-04-06T09:22:58.766Z,101441.28
2018-04-06T09:25:26.366Z,101434.55
2018-04-06T09:27:54.009Z,101427.32
2018-04-06T09:30:21.605Z,101417.70
2018-04-06T09:32:49.277Z,101422.03
2018-04-06T09:35:17.002Z,101405.97
2018-04-06T09:37:44.658Z,101411.30
2018-04-06T09:40:12.262Z,101408.03
2018-04-06T09:42:39.907Z,101410.89
2018-04-06T09:45:07.510Z,101404.05
2018-04-06T09:47:35.139Z,101401.52
2018-04-06T09:50:02.747Z,101387.44
2018-04-06T09:52:30.377Z,101388.70
2018-04-06T09:54:58.029Z,101390.39
2018-04-06T09:57:25.722Z,101383.31
2018-04-06T09:59:53.336Z,101385.20
2018-04-06T10:02:20.953Z,101392.16
2018-04-06T10:04:48.596Z,101390.77
2018-04-06T10:07:16.202Z,101387.91
2018-04-06T10:09:43.823Z,101381.20
2018-04-06T10:12:11.437Z,101378.63
2018-04-06T10:14:39.103Z,101374.55
2018-04-06T10:17:06.691Z,101376.88
2018-04-06T10:19:34.351Z,101370.52
2018-04-06T10:22:02.005Z,101370.56
2018-04-06T10:24:29.600Z,101368.28
2018-04-06T10:26:57.263Z,101364.97
2018-04-06T10:29:24.976Z,101365.95
2018-04-06T10:31:52.595Z,101365.25
2018-04-06T10:34:20.231Z,101367.32
2018-04-06T10:36:47.851Z,101363.89
2018-04-06T10:39:15.508Z,101358.85
2018-04-06T10:41:43.112Z,101358.28
2018-04-06T10:44:10.749Z,101352.33
2018-04-06T10:46:38.330Z,101354.30
2018-04-06T10:49:06.030Z,101344.00
2018-04-06T10:51:33.639Z,101333.09
2018-04-06T10:54:01.238Z,101339.38
2018-04-06T10:56:28.948Z,101338.33
2018-04-06T10:58:56.559Z,101335.64
2018-04-06T11:01:24.189Z,101329.38
2018-04-06T11:03:51.971Z,101326.94
2018-04-06T11:06:19.612Z,101322.05
2018-04-06T11:08:47.232Z,101322.38
2018-04-06T11:11:14.875Z,101323.03
2018-04-06T11:13:42.531Z,101327.92
2018-04-06T11:16:10.206Z,101313.94
2018-04-06T11:18:37.905Z,101313.34
2018-04-06T11:21:05.581Z,101311.71
2018-04-06T11:23:33.229Z,101305.66
2018-04-06T11:26:00.887Z,101302.72
2018-04-06T11:28:28.484Z,101297.91
2018-04-06T11:30:56.173Z,101302.06
2018-04-06T11:33:23.780Z,101310.02
2018-04-06T11:35:51.399Z,101296.95
2018-04-06T11:38:19.180Z,101289.48
2018-04-06T11:40:46.801Z,101289.37
2018-04-06T11:43:14.401Z,101280.74
2018-04-06T11:45:42.042Z,101282.13
2018-04-06T11:48:09.638Z,101282.69
2018-04-06T11:50:37.358Z,101270.72
2018-04-06T11:53:05.037Z,101269.00
2018-04-06T11:55:32.655Z,101256.19
2018-04-06T11:58:00.284Z,101243.54
2018-04-06T12:00:28.031Z,101238.25
2018-04-06T12:02:55.953Z,101231.11
2018-04-06T12:05:23.574Z,101234.40
2018-04-06T12:07:51.416Z,101230.68
2018-04-06T12:10:19.014Z,101228.42
2018-04-06T12:12:46.846Z,101227.18
2018-04-06T12:15:14.450Z,101218.88
2018-04-06T12:17:42.106Z,101223.06
2018-04-06T12:20:09.747Z,101222.46
2018-04-06T12:22:37.402Z,101205.70
2018-04-06T12:25:05.062Z,101193.19
2018-04-06T12:27:32.718Z,101206.03
2018-04-06T12:30:00.354Z,101196.34
2018-04-06T12:32:28.147Z,101194.42
2018-04-06T12:34:55.742Z,101183.48
2018-04-06T12:37:23.396Z,101178.30
2018-04-06T12:39:50.998Z,101179.47
2018-04-06T12:42:18.676Z,101176.34
2018-04-06T12:44:46.304Z,101166.98
2018-04-06T12:47:13.999Z,101161.59
2018-04-06T12:49:41.595Z,101145.16
2018-04-06T12:52:09.202Z,101142.11
2018-04-06T12:54:36.837Z,101139.66
2018-04-06T12:57:04.442Z,101134.39
2018-04-06T12:59:32.094Z,101132.05
2018-04-06T13:01:59.715Z,101130.62
2018-04-06T13:04:27.361Z,101141.73
2018-04-06T13:06:54.976Z,101145.39
2018-04-06T13:09:22.889Z,101144.86
2018-04-06T13:11:50.490Z,101130.00
2018-04-06T13:14:18.135Z,101127.87
2018-04-06T13:16:45.838Z,101125.13
2018-04-06T13:19:13.481Z,101106.52
2018-04-06T13:21:41.090Z,101109.24
2018-04-06T13:24:08.741Z,101096.53
2018-04-06T13:26:36.356Z,101092.30
2018-04-06T13:29:03.978Z,101087.16
2018-04-06T13:31:31.609Z,101089.61
2018-04-06T13:33:59.210Z,101082.77
2018-04-06T13:36:26.884Z,101094.13
2018-04-06T13:38:54.547Z,101088.52
2018-04-06T13:41:22.186Z,101085.41
2018-04-06T13:43:49.796Z,101077.70
2018-04-06T13:46:17.591Z,101064.35
2018-04-06T13:48:45.188Z,101059.80
2018-04-06T13:51:12.850Z,101045.86
2018-04-06T13:53:40.462Z,101045.49
2018-04-06T13:56:08.206Z,101037.02
2018-04-06T13:58:35.808Z,101035.08
2018-04-06T14:01:03.543Z,101037.17
2018-04-06T14:03:31.023Z,101033.84
2018-04-06T14:05:58.834Z,101025.94
2018-04-06T14:08:26.527Z,101027.14
2018-04-06T14:10:54.202Z,101022.84
2018-04-06T14:13:21.811Z,101019.27
2018-04-06T14:15:49.442Z,101016.50
2018-04-06T14:18:17.220Z,101020.08
2018-04-06T14:20:44.862Z,101015.77
2018-04-06T14:23:12.466Z,101002.99
2018-04-06T14:25:40.104Z,101003.66
2018-04-06T14:28:07.757Z,100993.97
2018-04-06T14:30:35.417Z,100987.72
2018-04-06T14:33:03.058Z,100988.92
2018-04-06T14:35:30.661Z,100987.94
2018-04-06T14:37:58.332Z,100986.30
2018-04-06T14:40:25.964Z,100970.09
2018-04-06T14:42:53.586Z,100964.79
2018-04-06T14:45:21.205Z,100970.20
2018-04-06T14:47:48.833Z,100974.91
2018-04-06T14:50:16.462Z,100960.23
2018-04-06T14:52:44.308Z,100970.67
2018-04-06T14:55:11.920Z,100972.28
2018-04-06T14:57:39.571Z,100968.73
2018-04-06T15:00:07.159Z,100953.48
2018-04-06T15:02:34.815Z,100960.05
2018-04-06T15:05:02.487Z,100939.59
2018-04-06T15:07:30.126Z,100943.09
2018-04-06T15:09:57.759Z,100935.79
2018-04-06T15:12:25.411Z,100940.26
2018-04-06T15:14:53.079Z,100934.02
2018-04-06T15:17:20.859Z,100934.22
2018-04-06T15:19:48.456Z,100940.73
2018-04-06T15:22:16.090Z,100926.09
2018-04-06T15:24:43.714Z,100924.58
2018-04-06T15:27:11.451Z,100925.66
2018-04-06T15:29:39.111Z,100920.30
2018-04-06T15:32:06.725Z,100922.61
2018-04-06T15:34:34.486Z,100922.02
2018-04-06T15:37:02.171Z,100923.64
2018-04-06T15:39:29.816Z,100922.05
2018-04-06T15:41:57.472Z,100915.67
2018-04-06T15:44:25.087Z,100914.28
2018-04-06T15:46:52.757Z,100914.34
2018-04-06T15:49:20.366Z,100910.23
2018-04-06T15:51:48.030Z,100899.34
2018-04-06T15:54:15.642Z,100906.17
2018-04-06T15:56:43.290Z,100903.03
2018-04-06T15:59:10.903Z,100907.48
2018-04-06T16:01:38.567Z,100906.62
2018-04-06T16:04:07.900Z,100903.14
2018-04-06T16:06:35.580Z,100890.26
2018-04-06T16:09:03.223Z,100901.98
2018-04-06T16:11:30.852Z,100894.37
2018-04-06T16:13:58.694Z,100902.10
2018-04-06T16:16:26.376Z,100899.21
2018-04-06T16:18:54.139Z,100894.44
2018-04-06T16:21:21.802Z,100891.22
2018-04-06T16:23:49.504Z,100891.28
2018-04-06T16:26:17.153Z,100895.30
2018-04-06T16:28:44.872Z,100901.48
2018-04-06T16:31:12.582Z,100884.39
2018-04-06T16:33:40.239Z,100889.74
2018-04-06T16:36:07.858Z,100875.89
2018-04-06T16:38:35.515Z,100879.24
2018-04-06T16:41:03.272Z,100876.69
2018-04-06T16:43:30.914Z,100878.16
2018-04-06T16:45:58.627Z,100874.39
2018-04-06T16:48:26.282Z,100873.23
2018-04-06T16:50:53.910Z,100868.19
2018-04-06T16:53:21.778Z,100872.10
2018-04-06T16:55:49.387Z,100864.35
2018-04-06T16:58:17.144Z,100867.28
2018-04-06T17:00:44.793Z,100871.82
2018-04-06T17:03:12.433Z,100870.76
2018-04-06T17:05:40.098Z,100876.64
2018-04-06T17:08:07.726Z,100868.06
2018-04-06T17:10:35.481Z,100870.16
2018-04-06T17:13:03.097Z,100863.50
2018-04-06T17:15:30.764Z,100878.09
2018-04-06T17:18:02.595Z,100870.06
2018-04-06T17:43:57.833Z,100875.92
2018-04-06T17:46:42.230Z,100878.12
2018-04-06T17:49:10.020Z,100871.66
2018-04-06T18:05:10.089Z,100864.39
2018-04-06T18:07:38.433Z,100860.70
2018-04-06T18:13:18.575Z,100867.48
2018-04-06T18:15:48.267Z,100859.61
2018-04-06T18:21:13.210Z,100863.78
2018-04-06T18:23:40.921Z,100862.72
2018-04-06T18:26:08.822Z,100863.33
2018-04-06T18:28:36.483Z,100858.05
2018-04-06T18:31:04.134Z,100856.43
2018-04-06T18:33:31.804Z,100856.75
2018-04-06T18:35:59.660Z,100849.55
2018-04-06T18:38:27.384Z,100851.45
2018-04-06T18:40:55.068Z,100851.50
2018-04-06T18:43:22.768Z,100849.56
2018-04-06T18:45:50.404Z,100839.50
2018-04-06T18:48:18.158Z,100844.36
2018-04-06T18:50:45.786Z,100841.58
2018-04-06T18:53:13.398Z,100843.75
2018-04-06T18:55:41.025Z,100831.63
2018-04-06T18:58:08.679Z,100841.72
2018-04-06T19:00:36.313Z,100842.65
2018-04-06T19:03:03.986Z,100849.45
2018-04-06T19:05:31.714Z,100842.45
2018-04-06T19:07:59.373Z,100841.41
2018-04-06T19:10:26.975Z,100836.44
2018-04-06T19:12:54.696Z,100832.68
2018-04-06T19:15:22.305Z,100823.42
2018-04-06T19:17:49.978Z,100828.41
2018-04-06T19:20:17.605Z,100825.34
2018-04-06T19:22:45.247Z,100821.66
2018-04-06T19:25:12.910Z,100820.33
2018-04-06T19:27:40.552Z,100815.39
2018-04-06T19:30:08.194Z,100810.28
2018-04-06T19:32:35.885Z,100808.14
2018-04-06T19:35:03.552Z,100803.06
2018-04-06T19:37:31.151Z,100797.03
2018-04-06T19:39:58.831Z,100797.22
2018-04-06T19:42:26.466Z,100796.78
2018-04-06T19:44:54.110Z,100799.21
2018-04-06T19:47:21.734Z,100793.98
2018-04-06T19:49:49.395Z,100794.17
2018-04-06T19:52:17.014Z,100786.39
2018-04-06T19:54:44.644Z,100780.49
2018-04-06T19:57:12.245Z,100781.82
2018-04-06T19:59:39.912Z,100781.45
2018-04-06T20:02:07.665Z,100781.98
2018-04-06T20:04:35.313Z,100788.48
2018-04-06T20:07:02.942Z,100779.78
2018-04-06T20:09:30.581Z,100772.23
2018-04-06T20:11:58.201Z,100778.71
2018-04-06T20:14:26.115Z,100771.45
2018-04-06T20:16:53.746Z,100769.45
2018-04-06T20:19:21.380Z,100765.01
2018-04-06T20:21:49.026Z,100764.45
2018-04-06T20:24:16.687Z,100758.02
2018-04-06T20:26:44.402Z,100752.41
2018-04-06T20:29:12.702Z,100746.48
2018-04-06T20:31:41.980Z,100739.91
2018-04-06T20:34:09.983Z,100739.81
2018-04-06T20:36:37.706Z,100732.13
2018-04-06T20:39:10.387Z,100731.98
2018-04-06T20:41:41.400Z,100734.95
2018-04-06T20:44:09.105Z,100732.52
2018-04-06T20:46:36.758Z,100734.11
2018-04-06T20:49:04.363Z,100728.34
2018-04-06T20:51:32.028Z,100723.36
2018-04-06T20:53:59.652Z,100721.09
2018-04-06T20:56:27.286Z,100726.73
2018-04-06T20:58:54.900Z,100720.85
2018-04-06T21:01:22.575Z,100721.66
2018-04-06T21:03:50.210Z,100710.63
2018-04-06T21:06:17.806Z,100709.27
2018-04-06T21:08:45.549Z,100706.74
2018-04-06T21:11:13.164Z,100705.53
2018-04-06T21:13:40.818Z,100701.36
2018-04-06T21:16:08.511Z,100699.73
2018-04-06T21:18:36.129Z,100692.79
2018-04-06T21:21:04.373Z,100692.52
2018-04-06T21:23:32.011Z,100696.97
2018-04-06T21:25:59.655Z,100683.95
2018-04-06T21:28:27.750Z,100692.94
2018-04-06T21:30:55.650Z,100687.97
2018-04-06T21:36:38.156Z,100687.70
2018-04-06T21:39:16.302Z,100685.58
2018-04-06T21:41:43.938Z,100681.13
2018-04-06T21:44:11.583Z,100678.86
2018-04-06T21:46:39.190Z,100675.49
2018-04-06T21:49:06.819Z,100673.77
2018-04-06T21:51:34.411Z,100670.53
2018-04-06T21:54:02.101Z,100673.09
2018-04-06T21:56:29.711Z,100670.54
2018-04-06T21:58:57.352Z,100663.68
2018-04-06T22:01:24.947Z,100667.30
2018-04-06T22:03:52.604Z,100663.55
2018-04-06T22:06:20.553Z,100665.72
2018-04-06T22:08:48.244Z,100666.80
2018-04-06T22:11:24.687Z,100671.37
2018-04-06T22:13:52.961Z,100669.21
2018-04-06T22:16:20.764Z,100671.66
2018-04-06T22:18:48.526Z,100672.18
2018-04-06T22:21:16.459Z,100667.63
2018-04-06T22:23:44.278Z,100676.08
2018-04-06T22:26:12.035Z,100675.84
2018-04-06T22:28:39.775Z,100680.80
2018-04-06T22:31:07.835Z,100675.02
2018-04-06T22:33:37.321Z,100674.92
2018-04-06T22:36:04.986Z,100674.37
2018-04-06T22:38:32.576Z,100671.03
2018-04-06T22:41:00.214Z,100674.25
2018-04-06T22:43:27.834Z,100679.48
2018-04-06T22:45:55.661Z,100672.63
2018-04-06T22:48:24.731Z,100669.67
2018-04-06T22:50:52.540Z,100676.02
2018-04-06T22:53:20.322Z,100673.06
2018-04-06T22:55:48.082Z,100675.23
2018-04-06T22:58:15.899Z,100673.06
2018-04-06T23:00:43.686Z,100668.90
2018-04-06T23:03:11.365Z,100667.04
2018-04-06T23:05:39.027Z,100670.27
2018-04-06T23:08:06.619Z,100667.05
2018-04-06T23:10:34.274Z,100667.32
2018-04-06T23:13:01.889Z,100658.99
2018-04-06T23:15:29.564Z,100664.50
2018-04-06T23:17:57.212Z,100657.78
2018-04-06T23:20:24.870Z,100659.68
2018-04-06T23:22:52.488Z,100655.11
2018-04-06T23:25:20.095Z,100659.68
2018-04-06T23:27:47.719Z,100654.45
2018-04-06T23:30:15.313Z,100655.93
2018-04-06T23:32:42.946Z,100652.97
2018-04-06T23:35:10.529Z,100647.88
2018-04-06T23:37:38.179Z,100639.96
2018-04-06T23:40:05.775Z,100640.37
2018-04-06T23:42:33.438Z,100640.52
2018-04-06T23:45:01.072Z,100639.58
2018-04-06T23:47:28.714Z,100643.47
2018-04-06T23:49:56.302Z,100640.92
2018-04-06T23:52:23.959Z,100647.91
2018-04-06T23:54:51.563Z,100645.33
2018-04-06T23:57:19.306Z,100645.47
2018-04-06T23:59:46.926Z,100646.57
